createdAt,value
2018-12-01T00:01:30.610Z,2.20
2018-12-01T00:03:59.794Z,2.20
2018-12-01T00:06:28.962Z,2.10
2018-12-01T00:08:58.163Z,2.10
2018-12-01T00:11:27.326Z,2.20
2018-12-01T00:13:56.502Z,2.20
2018-12-01T00:16:25.662Z,2.20
2018-12-01T00:18:54.855Z,2.20
2018-12-01T00:21:24.043Z,2.20
2018-12-01T00:23:53.263Z,2.20
2018-12-01T00:26:22.434Z,2.20
2018-12-01T00:28:51.633Z,2.10
2018-12-01T00:31:20.800Z,2.10
2018-12-01T00:33:49.984Z,2.10
2018-12-01T00:36:19.186Z,2.20
2018-12-01T00:38:48.418Z,2.20
2018-12-01T00:41:17.580Z,2.20
2018-12-01T00:43:46.768Z,2.10
2018-12-01T00:46:15.948Z,2.20
2018-12-01T00:48:45.134Z,2.20
2018-12-01T00:51:14.327Z,2.20
2018-12-01T00:53:43.510Z,2.20
2018-12-01T00:56:12.679Z,2.20
2018-12-01T00:58:41.867Z,2.20
2018-12-01T01:01:11.075Z,2.20
2018-12-01T01:03:40.259Z,2.30
2018-12-01T01:06:09.428Z,2.30
2018-12-01T01:08:38.624Z,2.30
2018-12-01T01:11:07.835Z,2.30
2018-12-01T01:13:37.023Z,2.40
2018-12-01T01:16:06.903Z,2.30
2018-12-01T01:18:36.074Z,2.30
2018-12-01T01:21:05.602Z,2.30
2018-12-01T01:23:34.769Z,2.30
2018-12-01T01:26:03.962Z,2.30
2018-12-01T01:28:33.131Z,2.30
2018-12-01T01:31:02.310Z,2.30
2018-12-01T01:33:31.642Z,2.30
2018-12-01T01:36:00.868Z,2.30
2018-12-01T01:38:30.054Z,2.30
2018-12-01T01:41:04.693Z,2.30
2018-12-01T01:43:33.862Z,2.40
2018-12-01T01:46:03.095Z,2.40
2018-12-01T01:48:32.350Z,2.40
2018-12-01T01:51:01.555Z,2.40
2018-12-01T01:53:30.722Z,2.40
2018-12-01T01:55:59.904Z,2.40
2018-12-01T01:58:29.074Z,2.40
2018-12-01T02:00:58.295Z,2.40
2018-12-01T02:03:27.455Z,2.40
2018-12-01T02:05:56.652Z,2.40
2018-12-01T02:08:25.930Z,2.50
2018-12-01T02:10:55.118Z,2.40
2018-12-01T02:13:24.279Z,2.40
2018-12-01T02:15:53.488Z,2.40
2018-12-01T02:18:22.650Z,2.40
2018-12-01T02:20:51.840Z,2.40
2018-12-01T02:23:21.001Z,2.40
2018-12-01T02:25:50.198Z,2.50
2018-12-01T02:28:19.372Z,2.50
2018-12-01T02:30:48.547Z,2.50
2018-12-01T02:33:17.804Z,2.50
2018-12-01T02:35:46.986Z,2.50
2018-12-01T02:38:16.182Z,2.50
2018-12-01T02:40:45.364Z,2.50
2018-12-01T02:43:14.531Z,2.60
2018-12-01T02:46:00.674Z,2.60
2018-12-01T02:48:29.836Z,2.50
2018-12-01T02:50:59.030Z,2.50
2018-12-01T02:53:28.198Z,2.60
2018-12-01T02:55:57.410Z,2.70
2018-12-01T02:58:26.571Z,2.70
2018-12-01T03:00:55.756Z,2.60
2018-12-01T03:03:24.906Z,2.60
2018-12-01T03:05:54.115Z,2.60
2018-12-01T03:08:23.286Z,2.60
2018-12-01T03:10:52.475Z,2.60
2018-12-01T03:13:21.646Z,2.60
2018-12-01T03:15:50.829Z,2.60
2018-12-01T03:18:19.990Z,2.60
2018-12-01T03:20:49.172Z,2.50
2018-12-01T03:23:18.332Z,2.60
2018-12-01T03:25:48.211Z,2.60
2018-12-01T03:28:17.374Z,2.60
2018-12-01T03:30:46.560Z,2.70
2018-12-01T03:33:15.734Z,2.70
2018-12-01T03:35:44.915Z,2.80
2018-12-01T03:38:14.100Z,2.70
2018-12-01T03:40:48.094Z,2.80
2018-12-01T03:43:17.446Z,2.80
2018-12-01T03:45:46.634Z,2.70
2018-12-01T03:48:15.802Z,2.70
2018-12-01T03:50:44.986Z,2.70
2018-12-01T03:53:14.338Z,2.70
2018-12-01T03:55:43.526Z,2.70
2018-12-01T03:58:12.698Z,2.70
2018-12-01T04:00:41.907Z,2.60
2018-12-01T04:03:11.097Z,2.70
2018-12-01T04:05:40.291Z,2.70
2018-12-01T04:08:09.462Z,2.70
2018-12-01T04:10:38.638Z,2.70
2018-12-01T04:13:07.810Z,2.70
2018-12-01T04:15:36.996Z,2.70
2018-12-01T04:18:06.326Z,2.70
2018-12-01T04:20:35.620Z,2.70
2018-12-01T04:23:04.957Z,2.70
2018-12-01T04:25:34.137Z,2.70
2018-12-01T04:28:03.302Z,2.70
2018-12-01T04:30:32.659Z,2.70
2018-12-01T04:33:01.850Z,2.70
2018-12-01T04:35:31.026Z,2.70
2018-12-01T04:38:00.232Z,2.80
2018-12-01T04:40:29.450Z,2.70
2018-12-01T04:42:58.624Z,2.80
2018-12-01T04:45:27.850Z,2.80
2018-12-01T04:47:57.010Z,2.80
2018-12-01T04:50:26.198Z,2.80
2018-12-01T04:52:55.371Z,2.90
2018-12-01T04:55:24.557Z,2.90
2018-12-01T04:57:53.746Z,2.80
2018-12-01T05:00:23.077Z,2.80
2018-12-01T05:02:52.255Z,2.80
2018-12-01T05:05:22.953Z,2.80
2018-12-01T05:07:52.318Z,2.80
2018-12-01T05:10:22.770Z,2.80
2018-12-01T05:12:51.974Z,2.80
2018-12-01T05:15:21.202Z,2.80
2018-12-01T05:17:50.406Z,2.80
2018-12-01T05:20:24.565Z,2.80
2018-12-01T05:22:54.394Z,2.80
2018-12-01T05:25:23.573Z,2.80
2018-12-01T05:27:52.913Z,2.90
2018-12-01T05:30:22.068Z,2.80
2018-12-01T05:32:51.246Z,2.80
2018-12-01T05:35:24.867Z,2.80
2018-12-01T05:37:54.091Z,2.80
2018-12-01T05:40:23.364Z,2.80
2018-12-01T05:42:52.546Z,2.80
2018-12-01T05:45:22.755Z,2.90
2018-12-01T05:47:52.718Z,2.90
2018-12-01T05:50:27.555Z,2.90
2018-12-01T05:52:57.792Z,2.80
2018-12-01T05:55:27.006Z,2.80
2018-12-01T05:57:56.189Z,2.90
2018-12-01T06:00:25.354Z,2.90
2018-12-01T06:02:54.532Z,2.90
2018-12-01T06:05:23.701Z,2.90
2018-12-01T06:07:52.903Z,2.90
2018-12-01T06:10:23.138Z,2.90
2018-12-01T06:12:53.590Z,2.90
2018-12-01T06:15:22.991Z,2.90
2018-12-01T06:17:52.174Z,2.90
2018-12-01T06:20:23.739Z,2.90
2018-12-01T06:22:52.918Z,3.00
2018-12-01T06:25:23.873Z,3.00
2018-12-01T06:27:53.577Z,3.00
2018-12-01T06:30:22.738Z,3.00
2018-12-01T06:32:52.747Z,3.00
2018-12-01T06:35:21.910Z,3.00
2018-12-01T06:37:51.167Z,3.00
2018-12-01T06:40:21.611Z,3.10
2018-12-01T06:42:50.894Z,3.10
2018-12-01T06:45:20.279Z,3.10
2018-12-01T06:47:49.469Z,3.10
2018-12-01T06:50:21.506Z,3.10
2018-12-01T06:52:52.761Z,3.10
2018-12-01T06:55:23.152Z,3.10
2018-12-01T06:57:52.378Z,3.10
2018-12-01T07:00:24.114Z,3.10
2018-12-01T07:02:54.846Z,3.20
2018-12-01T07:05:24.011Z,3.20
2018-12-01T07:07:53.192Z,3.20
2018-12-01T07:10:23.342Z,3.30
2018-12-01T07:13:02.209Z,3.20
2018-12-01T07:15:35.770Z,3.30
2018-12-01T07:18:20.718Z,3.30
2018-12-01T07:20:49.905Z,3.40
2018-12-01T07:23:19.094Z,3.30
2018-12-01T07:25:48.281Z,3.30
2018-12-01T07:28:17.474Z,3.30
2018-12-01T07:30:46.654Z,3.30
2018-12-01T07:33:15.879Z,3.20
2018-12-01T07:35:45.052Z,3.30
2018-12-01T07:38:14.265Z,3.20
2018-12-01T07:40:43.514Z,3.30
2018-12-01T07:43:12.783Z,3.30
2018-12-01T07:45:41.987Z,3.30
2018-12-01T07:48:11.207Z,3.30
2018-12-01T07:50:40.371Z,3.40
2018-12-01T07:53:09.751Z,3.40
2018-12-01T07:55:38.839Z,3.50
2018-12-01T07:58:08.059Z,3.50
2018-12-01T08:00:37.310Z,3.50
2018-12-01T08:03:06.650Z,3.50
2018-12-01T08:05:35.843Z,3.50
2018-12-01T08:08:05.106Z,3.50
2018-12-01T08:10:34.274Z,3.50
2018-12-01T08:13:03.508Z,3.50
2018-12-01T08:15:32.775Z,3.50
2018-12-01T08:18:02.034Z,3.60
2018-12-01T08:20:31.260Z,3.50
2018-12-01T08:23:00.598Z,3.60
2018-12-01T08:25:29.803Z,3.60
2018-12-01T08:27:59.178Z,3.60
2018-12-01T08:30:31.475Z,3.60
2018-12-01T08:33:00.750Z,3.60
2018-12-01T08:35:30.889Z,3.60
2018-12-01T08:38:00.127Z,3.60
2018-12-01T08:40:31.619Z,3.60
2018-12-01T08:43:00.911Z,3.70
2018-12-01T08:45:30.118Z,3.70
2018-12-01T08:47:59.391Z,3.70
2018-12-01T08:50:28.607Z,3.80
2018-12-01T08:52:57.899Z,3.80
2018-12-01T08:55:27.083Z,3.90
2018-12-01T08:57:56.354Z,3.90
2018-12-01T09:00:37.051Z,4.00
2018-12-01T09:03:11.486Z,4.00
2018-12-01T09:05:40.693Z,4.00
2018-12-01T09:08:10.000Z,4.00
2018-12-01T09:10:39.417Z,4.00
2018-12-01T09:13:08.665Z,3.90
2018-12-01T09:15:37.896Z,4.00
2018-12-01T09:18:07.214Z,4.00
2018-12-01T09:20:36.413Z,4.00
2018-12-01T09:23:06.027Z,4.00
2018-12-01T09:25:35.223Z,4.10
2018-12-01T09:28:04.635Z,4.10
2018-12-01T09:30:35.638Z,4.10
2018-12-01T09:33:04.961Z,4.10
2018-12-01T09:35:34.164Z,4.10
2018-12-01T09:38:03.422Z,4.10
2018-12-01T09:40:32.827Z,4.20
2018-12-01T09:43:02.091Z,4.20
2018-12-01T09:45:31.289Z,4.30
2018-12-01T09:48:00.595Z,4.30
2018-12-01T09:50:29.770Z,4.40
2018-12-01T09:52:59.150Z,4.40
2018-12-01T09:55:30.797Z,4.60
2018-12-01T09:58:00.710Z,4.60
2018-12-01T10:00:31.549Z,4.70
2018-12-01T10:03:06.975Z,4.80
2018-12-01T10:05:36.308Z,4.90
2018-12-01T10:08:06.124Z,5.00
2018-12-01T10:10:35.331Z,5.00
2018-12-01T10:13:04.728Z,5.10
2018-12-01T10:15:36.150Z,5.10
2018-12-01T10:18:07.187Z,5.10
2018-12-01T10:20:36.793Z,5.10
2018-12-01T10:23:11.348Z,5.10
2018-12-01T10:25:40.567Z,5.10
2018-12-01T10:28:11.206Z,5.10
2018-12-01T10:30:40.418Z,5.20
2018-12-01T10:33:09.615Z,5.20
2018-12-01T10:35:38.811Z,5.40
2018-12-01T10:38:11.779Z,5.60
2018-12-01T10:40:40.974Z,5.60
2018-12-01T10:43:10.210Z,5.80
2018-12-01T10:45:39.394Z,5.70
2018-12-01T10:48:11.418Z,5.70
2018-12-01T10:50:40.915Z,5.70
2018-12-01T10:53:10.087Z,5.70
2018-12-01T10:55:39.355Z,5.70
2018-12-01T10:58:15.743Z,5.70
2018-12-01T11:00:51.902Z,5.60
2018-12-01T11:03:26.587Z,5.60
2018-12-01T11:06:00.929Z,5.60
2018-12-01T11:08:30.138Z,5.60
2018-12-01T11:10:59.327Z,5.60
2018-12-01T11:13:28.735Z,5.70
2018-12-01T11:15:58.027Z,5.70
2018-12-01T11:18:28.327Z,5.70
2018-12-01T11:20:57.561Z,5.60
2018-12-01T11:23:26.801Z,5.60
2018-12-01T11:25:56.030Z,5.60
2018-12-01T11:28:25.273Z,5.50
2018-12-01T11:30:54.539Z,5.50
2018-12-01T11:33:23.772Z,5.50
2018-12-01T11:35:53.017Z,5.50
2018-12-01T11:38:22.262Z,5.60
2018-12-01T11:40:51.739Z,5.60
2018-12-01T11:43:20.951Z,5.70
2018-12-01T11:45:50.162Z,5.70
2018-12-01T11:48:19.347Z,5.70
2018-12-01T11:50:48.590Z,5.90
2018-12-01T11:53:18.534Z,6.30
2018-12-01T11:55:48.403Z,6.70
2018-12-01T11:58:17.648Z,6.90
2018-12-01T12:00:46.895Z,7.50
2018-12-01T12:03:16.066Z,8.00
2018-12-01T12:05:45.293Z,8.00
2018-12-01T12:08:20.507Z,7.90
2018-12-01T12:10:49.732Z,8.60
2018-12-01T12:13:19.414Z,8.30
2018-12-01T12:15:48.945Z,7.80
2018-12-01T12:18:18.267Z,7.20
2018-12-01T12:20:47.649Z,6.80
2018-12-01T12:23:16.987Z,6.60
2018-12-01T12:25:46.147Z,6.70
2018-12-01T12:28:15.406Z,7.70
2018-12-01T12:30:44.644Z,8.60
2018-12-01T12:33:13.847Z,9.20
2018-12-01T12:35:43.041Z,9.60
2018-12-01T12:38:12.286Z,10.10
2018-12-01T12:40:41.583Z,10.50
2018-12-01T12:43:10.786Z,10.70
2018-12-01T12:45:40.095Z,11.50
2018-12-01T12:48:10.000Z,11.90
2018-12-01T12:50:39.363Z,11.80
2018-12-01T12:53:08.902Z,10.80
2018-12-01T12:55:38.133Z,10.10
2018-12-01T12:58:07.729Z,9.00
2018-12-01T13:00:37.143Z,8.20
2018-12-01T13:03:11.659Z,7.80
2018-12-01T13:05:45.405Z,7.50
2018-12-01T13:08:17.554Z,7.30
2018-12-01T13:10:46.787Z,7.20
2018-12-01T13:13:16.002Z,7.20
2018-12-01T13:15:45.223Z,7.10
2018-12-01T13:18:15.271Z,7.00
2018-12-01T13:20:46.422Z,6.90
2018-12-01T13:23:15.638Z,6.90
2018-12-01T13:25:45.506Z,6.90
2018-12-01T13:28:17.407Z,6.90
2018-12-01T13:30:58.346Z,6.90
2018-12-01T13:33:27.953Z,6.90
2018-12-01T13:35:58.236Z,6.90
2018-12-01T13:38:28.049Z,6.90
2018-12-01T13:40:57.291Z,6.90
2018-12-01T13:43:26.732Z,6.80
2018-12-01T13:45:55.947Z,6.80
2018-12-01T13:48:25.198Z,6.80
2018-12-01T13:50:54.413Z,6.80
2018-12-01T13:53:23.599Z,6.70
2018-12-01T13:55:52.782Z,6.80
2018-12-01T13:58:21.957Z,6.70
2018-12-01T14:00:51.143Z,6.70
2018-12-01T14:03:20.324Z,6.70
2018-12-01T14:05:49.519Z,6.70
2018-12-01T14:08:18.778Z,6.70
2018-12-01T14:10:52.083Z,6.60
2018-12-01T14:13:21.259Z,6.60
2018-12-01T14:15:50.445Z,6.60
2018-12-01T14:18:19.612Z,6.50
2018-12-01T14:20:48.823Z,6.50
2018-12-01T14:23:17.983Z,6.50
2018-12-01T14:25:47.173Z,6.60
2018-12-01T14:28:16.338Z,6.60
2018-12-01T14:30:45.559Z,6.50
2018-12-01T14:33:14.751Z,6.50
2018-12-01T14:35:44.018Z,6.50
2018-12-01T14:38:21.569Z,6.40
2018-12-01T14:40:51.135Z,6.50
2018-12-01T14:43:20.327Z,6.40
2018-12-01T14:45:50.395Z,6.50
2018-12-01T14:48:19.559Z,6.40
2018-12-01T14:50:49.013Z,6.40
2018-12-01T14:53:19.087Z,6.30
2018-12-01T14:55:48.288Z,6.30
2018-12-01T14:58:17.471Z,6.30
2018-12-01T15:00:46.681Z,6.30
2018-12-01T15:03:15.902Z,6.30
2018-12-01T15:05:45.095Z,6.40
2018-12-01T15:08:14.271Z,6.30
2018-12-01T15:10:43.482Z,6.30
2018-12-01T15:13:12.659Z,6.20
2018-12-01T15:15:41.875Z,6.20
2018-12-01T15:18:11.052Z,6.20
2018-12-01T15:20:40.239Z,6.10
2018-12-01T15:23:09.411Z,6.10
2018-12-01T15:25:38.663Z,6.10
2018-12-01T15:28:07.831Z,6.00
2018-12-01T15:30:37.043Z,6.00
2018-12-01T15:33:10.475Z,6.00
2018-12-01T15:35:40.607Z,6.00
2018-12-01T15:38:11.326Z,6.00
2018-12-01T15:40:43.866Z,6.00
2018-12-01T15:43:13.321Z,6.00
2018-12-01T15:45:42.595Z,6.00
2018-12-01T15:48:11.810Z,5.90
2018-12-01T15:50:41.179Z,5.80
2018-12-01T15:53:13.550Z,5.80
2018-12-01T15:55:43.260Z,5.90
2018-12-01T15:58:12.423Z,5.90
2018-12-01T16:00:42.983Z,5.90
2018-12-01T16:03:12.242Z,5.80
2018-12-01T16:05:41.484Z,5.80
2018-12-01T16:08:11.784Z,5.70
2018-12-01T16:10:41.067Z,5.70
2018-12-01T16:13:15.749Z,5.70
2018-12-01T16:15:48.722Z,5.70
2018-12-01T16:18:17.963Z,5.50
2018-12-01T16:20:47.298Z,5.50
2018-12-01T16:23:16.479Z,5.50
2018-12-01T16:25:45.703Z,5.30
2018-12-01T16:28:14.919Z,5.30
2018-12-01T16:30:45.747Z,5.20
2018-12-01T16:33:23.852Z,5.30
2018-12-01T16:35:53.074Z,5.30
2018-12-01T16:38:26.812Z,5.20
2018-12-01T16:41:07.516Z,5.10
2018-12-01T16:43:37.012Z,5.10
2018-12-01T16:46:06.244Z,5.00
2018-12-01T16:48:35.459Z,5.00
2018-12-01T16:51:04.665Z,5.00
2018-12-01T16:53:33.847Z,5.00
2018-12-01T16:56:03.059Z,5.00
2018-12-01T16:58:32.239Z,5.00
2018-12-01T17:01:01.463Z,5.00
2018-12-01T17:03:30.711Z,5.00
2018-12-01T17:06:03.529Z,5.00
2018-12-01T17:08:32.717Z,5.00
2018-12-01T17:11:01.882Z,5.00
2018-12-01T17:13:31.070Z,5.00
2018-12-01T17:16:00.279Z,5.00
2018-12-01T17:18:29.526Z,5.00
2018-12-01T17:20:58.765Z,5.00
2018-12-01T17:23:28.031Z,4.90
2018-12-01T17:25:57.207Z,4.90
2018-12-01T17:28:26.411Z,4.90
2018-12-01T17:30:55.727Z,4.90
2018-12-01T17:33:24.994Z,4.90
2018-12-01T17:35:54.180Z,4.90
2018-12-01T17:38:23.630Z,4.80
2018-12-01T17:41:20.257Z,4.80
2018-12-01T17:43:52.207Z,4.80
2018-12-01T17:46:21.443Z,4.80
2018-12-01T17:48:50.642Z,4.70
2018-12-01T17:51:19.831Z,4.70
2018-12-01T17:53:54.043Z,4.70
2018-12-01T17:56:23.775Z,4.80
2018-12-01T17:58:52.967Z,4.80
2018-12-01T18:01:22.147Z,4.70
2018-12-01T18:03:51.797Z,4.80
2018-12-01T18:06:20.978Z,4.70
2018-12-01T18:08:50.206Z,4.70
2018-12-01T18:11:19.369Z,4.60
2018-12-01T18:13:48.584Z,4.60
2018-12-01T18:16:17.792Z,4.60
2018-12-01T18:18:46.995Z,4.60
2018-12-01T18:21:16.190Z,4.50
2018-12-01T18:23:45.590Z,4.60
2018-12-01T18:26:14.863Z,4.50
2018-12-01T18:28:47.305Z,4.50
2018-12-01T18:31:20.557Z,4.50
2018-12-01T18:33:56.994Z,4.50
2018-12-01T18:36:26.364Z,4.50
2018-12-01T18:38:55.744Z,4.60
2018-12-01T18:41:24.951Z,4.60
2018-12-01T18:43:54.146Z,4.50
2018-12-01T18:46:23.319Z,4.50
2018-12-01T18:48:52.512Z,4.50
2018-12-01T18:51:21.680Z,4.40
2018-12-01T18:53:50.874Z,4.50
2018-12-01T18:56:20.050Z,4.50
2018-12-01T18:58:54.821Z,4.50
2018-12-01T19:01:23.988Z,4.40
2018-12-01T19:03:53.212Z,4.40
2018-12-01T19:06:22.747Z,4.40
2018-12-01T19:08:52.570Z,4.50
2018-12-01T19:11:21.762Z,4.40
2018-12-01T19:13:50.990Z,4.40
2018-12-01T19:16:20.186Z,4.40
2018-12-01T19:18:49.970Z,4.40
2018-12-01T19:21:19.138Z,4.30
2018-12-01T19:23:48.324Z,4.30
2018-12-01T19:26:17.490Z,4.30
2018-12-01T19:28:46.678Z,4.20
2018-12-01T19:31:15.847Z,4.20
2018-12-01T19:33:45.038Z,4.30
2018-12-01T19:36:14.269Z,4.30
2018-12-01T19:38:43.483Z,4.30
2018-12-01T19:41:12.662Z,4.30
2018-12-01T19:43:41.866Z,4.30
2018-12-01T19:46:11.034Z,4.30
2018-12-01T19:48:40.227Z,4.20
2018-12-01T19:51:09.397Z,4.20
2018-12-01T19:53:38.598Z,4.20
2018-12-01T19:56:07.787Z,4.20
2018-12-01T19:58:36.994Z,4.30
2018-12-01T20:01:06.454Z,4.20
2018-12-01T20:03:35.706Z,4.20
2018-12-01T20:06:05.113Z,4.20
2018-12-01T20:08:34.335Z,4.20
2018-12-01T20:11:05.767Z,4.20
2018-12-01T20:13:46.281Z,4.20
2018-12-01T20:16:32.555Z,4.20
2018-12-01T20:19:02.146Z,4.20
2018-12-01T20:21:31.310Z,4.20
2018-12-01T20:24:00.515Z,4.20
2018-12-01T20:26:30.322Z,4.20
2018-12-01T20:28:59.539Z,4.20
2018-12-01T20:31:28.726Z,4.20
2018-12-01T20:34:00.494Z,4.30
2018-12-01T20:36:35.122Z,4.30
2018-12-01T20:39:16.117Z,4.30
2018-12-01T20:41:45.329Z,4.30
2018-12-01T20:44:14.541Z,4.30
2018-12-01T20:46:43.784Z,4.30
2018-12-01T20:49:13.025Z,4.30
2018-12-01T20:51:42.304Z,4.30
2018-12-01T20:54:24.299Z,4.40
2018-12-01T20:56:59.899Z,4.40
2018-12-01T20:59:29.141Z,4.40
2018-12-01T21:01:58.316Z,4.30
2018-12-01T21:04:27.511Z,4.30
2018-12-01T21:06:56.719Z,4.30
2018-12-01T21:09:25.970Z,4.30
2018-12-01T21:11:55.186Z,4.30
2018-12-01T21:14:24.388Z,4.40
2018-12-01T21:16:53.579Z,4.30
2018-12-01T21:19:22.908Z,4.30
2018-12-01T21:21:52.213Z,4.30
2018-12-01T21:24:21.482Z,4.30
2018-12-01T21:26:50.694Z,4.40
2018-12-01T21:29:19.959Z,4.40
2018-12-01T21:31:49.151Z,4.30
2018-12-01T21:34:18.899Z,4.40
2018-12-01T21:36:48.093Z,4.30
2018-12-01T21:39:17.335Z,4.40
2018-12-01T21:41:46.543Z,4.40
2018-12-01T21:44:15.794Z,4.40
2018-12-01T21:46:44.982Z,4.40
2018-12-01T21:49:14.212Z,4.40
2018-12-01T21:51:43.426Z,4.40
2018-12-01T21:54:12.653Z,4.40
2018-12-01T21:56:41.911Z,4.40
2018-12-01T21:59:11.111Z,4.40
2018-12-01T22:01:41.074Z,4.40
2018-12-01T22:04:10.878Z,4.30
2018-12-01T22:06:40.090Z,4.40
2018-12-01T22:09:10.034Z,4.40
2018-12-01T22:11:39.227Z,4.30
2018-12-01T22:14:09.056Z,4.30
2018-12-01T22:16:38.251Z,4.30
2018-12-01T22:19:07.466Z,4.30
2018-12-01T22:21:36.694Z,4.40
2018-12-01T22:24:06.170Z,4.40
2018-12-01T22:26:35.879Z,4.40
2018-12-01T22:29:05.250Z,4.40
2018-12-01T22:31:34.459Z,4.40
2018-12-01T22:34:03.678Z,4.40
2018-12-01T22:36:32.914Z,4.40
2018-12-01T22:39:02.181Z,4.40
2018-12-01T22:41:31.387Z,4.40
2018-12-01T22:44:00.602Z,4.40
2018-12-01T22:46:29.822Z,4.40
2018-12-01T22:48:59.040Z,4.40
2018-12-01T22:51:28.277Z,4.40
2018-12-01T22:53:57.539Z,4.40
2018-12-01T22:56:28.963Z,4.40
2018-12-01T22:58:56.147Z,4.40
2018-12-01T23:01:25.368Z,4.40
2018-12-01T23:03:54.641Z,4.30
2018-12-01T23:06:23.889Z,4.30
2018-12-01T23:08:53.132Z,4.30
2018-12-01T23:11:22.378Z,4.30
2018-12-01T23:13:51.606Z,4.30
2018-12-01T23:16:20.902Z,4.30
2018-12-01T23:18:50.207Z,4.30
2018-12-01T23:21:20.728Z,4.30
2018-12-01T23:23:49.559Z,4.30
2018-12-01T23:26:18.802Z,4.40
2018-12-01T23:28:48.049Z,4.40
2018-12-01T23:31:17.253Z,4.40
2018-12-01T23:33:46.439Z,4.40
2018-12-01T23:36:15.671Z,4.40
2018-12-01T23:38:44.920Z,4.40
2018-12-01T23:41:14.131Z,4.40
2018-12-01T23:43:43.334Z,4.40
2018-12-01T23:46:12.650Z,4.40
2018-12-01T23:48:41.846Z,4.40
2018-12-01T23:51:11.062Z,4.40
2018-12-01T23:53:40.312Z,4.40
2018-12-01T23:56:09.550Z,4.40
2018-12-01T23:58:38.760Z,4.40
